createdAt,value
2022-12-12T00:03:33.028Z,25.1
2022-12-12T00:09:17.393Z,24.8
2022-12-12T00:14:55.063Z,24.2
2022-12-12T00:20:38.685Z,23.9
2022-12-12T00:26:22.087Z,23.6
2022-12-12T00:32:06.388Z,27.7
2022-12-12T00:37:44.325Z,30.1
2022-12-12T00:43:06.698Z,29.4
2022-12-12T00:48:29.883Z,26.9
2022-12-12T00:54:07.249Z,25.4
2022-12-12T00:59:14.788Z,24.8
2022-12-12T01:04:57.563Z,24.3
2022-12-12T01:10:36.295Z,24.1
2022-12-12T01:15:57.556Z,23.6
2022-12-12T01:21:35.368Z,24.5
2022-12-12T01:26:57.558Z,28.8
2022-12-12T01:32:42.150Z,30.7
2022-12-12T01:38:04.408Z,27.9
2022-12-12T01:43:42.152Z,26.6
2022-12-12T01:49:28.451Z,25.1
2022-12-12T01:55:06.061Z,24.8
2022-12-12T02:00:12.418Z,24.2
2022-12-12T02:05:20.010Z,24
2022-12-12T02:10:58.478Z,28.2
2022-12-12T02:16:37.004Z,30.4
2022-12-12T02:22:17.950Z,24.8
2022-12-12T02:28:00.906Z,25.8
2022-12-12T02:33:38.487Z,29.8
2022-12-12T02:39:16.124Z,29.3
2022-12-12T02:44:53.468Z,26.9
2022-12-12T02:50:31.464Z,25.3
2022-12-12T02:55:53.665Z,24.9
2022-12-12T03:01:31.656Z,24.3
2022-12-12T03:06:57.595Z,24.1
2022-12-12T03:12:35.342Z,23.6
2022-12-12T03:18:13.915Z,26.1
2022-12-12T03:23:36.687Z,29.4
2022-12-12T03:29:14.491Z,31
2022-12-12T03:34:52.418Z,27.4
2022-12-12T03:40:29.858Z,25.9
2022-12-12T03:46:07.169Z,24.9
2022-12-12T03:51:45.432Z,24.4
2022-12-12T03:56:52.552Z,24.1
2022-12-12T04:02:30.731Z,26.1
2022-12-12T04:08:08.795Z,29.3
2022-12-12T04:13:15.825Z,30.9
2022-12-12T04:18:23.394Z,27.6
2022-12-12T04:23:34.206Z,26.6
2022-12-12T04:29:11.921Z,25.1
2022-12-12T04:34:34.059Z,24.7
2022-12-12T04:40:11.597Z,24.3
2022-12-12T04:45:33.392Z,23.9
2022-12-12T04:50:58.014Z,23.6
2022-12-12T04:56:38.053Z,27.1
2022-12-12T05:02:21.245Z,29.4
2022-12-12T05:07:59.519Z,30.8
2022-12-12T05:13:21.571Z,27.4
2022-12-12T05:19:03.694Z,26.7
2022-12-12T05:24:26.456Z,25.1
2022-12-12T05:29:55.835Z,24.7
2022-12-12T05:35:33.728Z,24.1
2022-12-12T05:41:11.468Z,24.5
2022-12-12T05:46:49.561Z,28.6
2022-12-12T05:52:27.402Z,22.8
2022-12-12T05:57:57.913Z,26.1
2022-12-12T06:03:35.410Z,29.6
2022-12-12T06:09:15.964Z,31.5
2022-12-12T06:14:23.257Z,27.4
2022-12-12T06:19:47.434Z,26.2
2022-12-12T06:25:25.485Z,25
2022-12-12T06:31:06.821Z,24.6
2022-12-12T06:36:47.982Z,24.1
2022-12-12T06:42:26.892Z,25.9
2022-12-12T06:48:09.557Z,29.5
2022-12-12T06:53:16.166Z,31.2
2022-12-12T06:59:00.958Z,27.9
2022-12-12T07:04:43.219Z,26.4
2022-12-12T07:10:21.667Z,25.1
2022-12-12T07:16:00.712Z,24.6
2022-12-12T07:21:39.009Z,24.1
2022-12-12T07:35:32.611Z,30.3
2022-12-12T07:41:17.950Z,29.3
2022-12-12T07:46:32.055Z,26.9
2022-12-12T07:52:10.155Z,25.4
2022-12-12T07:57:47.763Z,24.9
2022-12-12T08:03:27.950Z,24.3
2022-12-12T08:09:14.701Z,24.1
2022-12-12T08:14:53.084Z,28.4
2022-12-12T08:20:31.706Z,30.7
2022-12-12T08:26:13.760Z,28.5
2022-12-12T08:31:36.390Z,26.8
2022-12-12T08:37:18.980Z,25.2
2022-12-12T08:42:58.287Z,24.8
2022-12-12T08:48:38.675Z,24.3
2022-12-12T08:54:16.758Z,24.1
2022-12-12T08:59:55.579Z,29.2
2022-12-12T09:05:41.808Z,31.3
2022-12-12T09:11:23.522Z,27.4
2022-12-12T09:17:01.340Z,25.9
2022-12-12T09:22:26.904Z,24.8
2022-12-12T09:28:10.563Z,24.4
2022-12-12T09:33:48.667Z,24.1
2022-12-12T09:39:27.171Z,26.3
2022-12-12T09:45:09.396Z,29.9
2022-12-12T09:50:50.815Z,30.5
2022-12-12T09:56:28.849Z,27.1
2022-12-12T10:02:13.577Z,25.6
2022-12-12T10:08:25.119Z,24.9
2022-12-12T10:14:04.963Z,24.3
2022-12-12T10:19:44.692Z,24.1
2022-12-12T10:25:26.861Z,28.1
2022-12-12T10:31:05.467Z,30.6
2022-12-12T10:36:50.186Z,28.9
2022-12-12T10:42:29.160Z,26.7
2022-12-12T10:48:08.202Z,25.2
2022-12-12T10:53:49.340Z,24.9
2022-12-12T10:59:33.359Z,24.3
2022-12-12T11:05:47.053Z,24.1
2022-12-12T11:11:26.076Z,29.5
2022-12-12T11:17:04.462Z,31.6
2022-12-12T11:22:41.875Z,27.4
2022-12-12T11:28:23.446Z,25.9
2022-12-12T11:34:01.454Z,24.9
2022-12-12T11:39:24.459Z,24.5
2022-12-12T11:45:09.107Z,24.2
2022-12-12T11:50:47.315Z,26.7
2022-12-12T11:56:25.472Z,30.1
2022-12-12T12:02:03.525Z,30.2
2022-12-12T12:07:42.421Z,26.6
2022-12-12T12:13:26.367Z,25.3
2022-12-12T12:19:04.896Z,24.7
2022-12-12T12:24:48.214Z,24.5
2022-12-12T12:30:26.296Z,24.4
2022-12-12T12:35:49.205Z,24.3
2022-12-12T12:41:27.330Z,24.1
2022-12-12T12:47:05.374Z,23.9
2022-12-12T12:52:44.452Z,23.7
2022-12-12T12:58:07.741Z,23.5
2022-12-12T13:03:50.598Z,23.3
2022-12-12T13:09:32.603Z,23.2
2022-12-12T13:15:10.299Z,23
2022-12-12T13:21:02.586Z,22.9
2022-12-12T13:26:41.151Z,22.8
2022-12-12T13:32:20.647Z,22.6
2022-12-12T13:38:04.537Z,22.5
2022-12-12T13:43:11.677Z,22.4
2022-12-12T13:48:50.097Z,22.3
2022-12-12T13:54:14.318Z,22.2
2022-12-12T13:59:52.952Z,22.1
2022-12-12T14:05:32.137Z,22
2022-12-12T14:10:55.910Z,21.9
2022-12-12T14:16:46.699Z,21.8
2022-12-12T14:22:19.131Z,27.7
2022-12-12T14:28:00.286Z,33.6
2022-12-12T14:33:43.708Z,35.4
2022-12-12T14:39:25.911Z,37.8
2022-12-12T14:46:34.712Z,36.7
2022-12-12T14:52:19.198Z,36.8
2022-12-12T14:58:00.248Z,36.8
2022-12-12T15:03:39.029Z,39.3
2022-12-12T15:09:20.080Z,41.1
2022-12-12T15:15:00.901Z,40.6
2022-12-12T15:20:41.438Z,38.1
2022-12-12T15:25:48.506Z,42.3
2022-12-12T15:31:32.471Z,43.3
2022-12-12T15:37:11.065Z,43.9
2022-12-12T15:42:37.192Z,43.9
2022-12-12T15:48:15.607Z,43.9
2022-12-12T15:53:39.336Z,44
2022-12-12T15:59:23.457Z,44
2022-12-12T16:05:15.340Z,43.9
2022-12-12T16:10:44.679Z,43.7
2022-12-12T16:16:23.279Z,43.7
2022-12-12T16:22:05.885Z,39.8
2022-12-12T16:27:44.008Z,40.3
2022-12-12T16:33:28.825Z,38.2
2022-12-12T16:38:55.120Z,38
2022-12-12T16:44:18.064Z,39.3
2022-12-12T16:49:48.026Z,43.1
2022-12-12T16:55:10.669Z,44
2022-12-12T17:00:34.060Z,44.1
2022-12-12T17:05:57.552Z,44
2022-12-12T17:11:42.648Z,43.9
2022-12-12T17:17:05.295Z,43.9
2022-12-12T17:22:50.782Z,43.4
2022-12-12T17:28:50.532Z,42
2022-12-12T17:34:58.495Z,40.7
2022-12-12T17:40:25.676Z,39.1
2022-12-12T17:46:08.407Z,41.4
2022-12-12T17:51:48.653Z,43.3
2022-12-12T17:58:28.071Z,43.5
2022-12-12T18:03:37.602Z,43.5
2022-12-12T18:09:01.008Z,43.1
2022-12-12T18:14:29.892Z,43.1
2022-12-12T18:20:08.284Z,43.2
2022-12-12T18:26:36.675Z,43.3
2022-12-12T18:31:44.241Z,43.4
2022-12-12T18:37:06.563Z,43.4
2022-12-12T18:42:14.242Z,39.6
2022-12-12T18:47:37.087Z,40.9
2022-12-12T18:52:44.235Z,38.9
2022-12-12T18:58:13.711Z,39.8
2022-12-12T19:03:52.728Z,38.4
2022-12-12T19:09:34.899Z,40.7
2022-12-12T19:15:51.307Z,38.9
2022-12-12T19:21:13.340Z,38.9
2022-12-12T19:27:22.798Z,40.5
2022-12-12T19:32:49.387Z,38.5
2022-12-12T19:37:56.092Z,40.1
2022-12-12T19:43:19.160Z,39.3
2022-12-12T19:48:43.405Z,42
2022-12-12T19:53:56.102Z,42
2022-12-12T19:59:18.092Z,40.9
2022-12-12T20:04:41.278Z,41
2022-12-12T20:10:09.490Z,39.4
2022-12-12T20:15:43.606Z,40.9
2022-12-12T20:21:06.588Z,42.3
2022-12-12T20:27:07.775Z,43.9
2022-12-12T20:32:50.608Z,44.3
2022-12-12T20:38:28.772Z,44.4
2022-12-12T20:44:12.169Z,44.2
2022-12-12T20:49:49.778Z,43.9
2022-12-12T20:56:10.956Z,43.5
2022-12-12T21:01:20.643Z,42.8
2022-12-12T21:06:46.210Z,42.9
2022-12-12T21:12:12.680Z,41.4
2022-12-12T21:17:50.805Z,38.4
2022-12-12T21:23:29.045Z,38.8
2022-12-12T21:29:14.264Z,37.4
2022-12-12T21:34:54.990Z,37.3
2022-12-12T21:40:20.255Z,36.6
2022-12-12T21:45:58.070Z,35.9
2022-12-12T21:51:38.110Z,35.1
2022-12-12T21:57:00.483Z,33.9
2022-12-12T22:02:49.815Z,28.4
2022-12-12T22:08:28.704Z,26.6
2022-12-12T22:14:27.086Z,28.3
2022-12-12T22:19:55.834Z,28.4
2022-12-12T22:25:33.814Z,28.2
2022-12-12T22:30:56.571Z,27.9
2022-12-12T22:36:20.079Z,27.8
2022-12-12T22:41:42.454Z,27.5
2022-12-12T22:47:20.168Z,27.3
2022-12-12T22:52:42.738Z,26.8
2022-12-12T22:57:34.492Z,26.4
2022-12-12T23:08:38.784Z,31.1
2022-12-12T23:14:17.348Z,28.1
2022-12-12T23:19:55.891Z,27.2
2022-12-12T23:25:02.299Z,26.9
2022-12-12T23:30:12.288Z,26.4
2022-12-12T23:35:35.236Z,26.1
2022-12-12T23:40:42.242Z,29.5
2022-12-12T23:46:05.542Z,30.7
2022-12-12T23:51:42.948Z,27.9
2022-12-12T23:57:09.709Z,26.9
